Time;durP1;ratioP1;P1;durP2;ratioP2;P2;SDS_P1;SDS_P2;PMS_P1;PMS_P2;Temp;Humidity;BMP_temperature;BMP_pressure;BME280_temperature;BME280_humidity;BME280_pressure;Samples;Min_cycle;Max_cycle;Signal;HPM_P1;HPM_P2
2021/12/29 00:02:08;;;;;;;2.47;1.87;;;;;;;3.70;91.48;98635.71;2961385;80;21078;-75
2021/12/29 00:06:09;;;;;;;3.37;3.08;;;;;;;3.75;91.72;98630.94;2960463;80;21030;-76
2021/12/29 00:10:14;;;;;;;4.42;2.50;;;;;;;3.70;91.64;98623.41;2960394;80;21064;-76
2021/12/29 00:14:16;;;;;;;4.42;3.08;;;;;;;3.82;91.71;98624.69;2960009;80;21044;-72
2021/12/29 00:18:18;;;;;;;11.70;3.80;;;;;;;3.82;91.29;98620.73;2960726;80;21024;-75
2021/12/29 00:22:20;;;;;;;10.55;5.83;;;;;;;3.89;91.01;98622.40;2961358;80;21040;-73
2021/12/29 00:26:21;;;;;;;6.80;4.05;;;;;;;3.98;90.51;98627.75;2960960;80;21042;-68
2021/12/29 00:30:24;;;;;;;6.72;3.52;;;;;;;4.00;90.31;98622.37;2961077;79;21001;-77
2021/12/29 00:34:42;;;;;;;6.55;3.92;;;;;;;4.03;90.08;98619.95;2962103;80;21028;-69
2021/12/29 00:38:50;;;;;;;3.65;2.77;;;;;;;4.10;89.67;98612.75;2950414;80;21105;-76
2021/12/29 00:42:52;;;;;;;3.02;2.10;;;;;;;4.07;89.43;98614.83;2960057;80;21019;-74
2021/12/29 00:46:54;;;;;;;4.37;2.60;;;;;;;4.07;89.76;98610.88;2957756;80;21304;-70
2021/12/29 00:50:56;;;;;;;5.50;4.45;;;;;;;4.08;89.45;98612.55;2952511;80;21010;-78
2021/12/29 00:55:00;;;;;;;6.72;3.12;;;;;;;4.08;88.99;98614.67;2941421;79;22288;-71
2021/12/29 00:59:03;;;;;;;4.90;2.75;;;;;;;4.07;89.07;98612.19;2958091;80;21018;-79
2021/12/29 01:03:08;;;;;;;9.50;4.47;;;;;;;4.05;88.72;98606.22;2958391;80;21030;-77
2021/12/29 01:07:10;;;;;;;6.60;2.53;;;;;;;4.11;88.44;98620.19;2954773;80;20999;-75
2021/12/29 01:11:15;;;;;;;1.98;1.55;;;;;;;4.19;88.02;98621.69;2944056;80;21084;-75
2021/12/29 01:15:24;;;;;;;2.55;2.35;;;;;;;4.25;87.50;98629.11;2934871;81;21025;-74
2021/12/29 01:19:24;;;;;;;2.87;1.90;;;;;;;4.22;88.00;98634.59;2909780;81;21045;-77
2021/12/29 01:23:26;;;;;;;5.00;3.12;;;;;;;4.19;87.95;98635.35;2912017;81;21045;-78
2021/12/29 01:27:27;;;;;;;4.37;2.45;;;;;;;4.22;87.65;98635.09;2924267;80;21053;-74
2021/12/29 01:31:30;;;;;;;6.72;3.12;;;;;;;4.32;87.51;98632.55;2943997;80;21038;-76
2021/12/29 01:35:38;;;;;;;3.55;3.25;;;;;;;4.28;87.10;98634.11;2922723;80;21026;-75
2021/12/29 01:39:39;;;;;;;4.12;3.08;;;;;;;4.29;87.22;98633.62;2915901;81;20986;-74
2021/12/29 01:43:41;;;;;;;1.60;1.40;;;;;;;4.26;86.94;98635.19;2917865;81;21026;-71
2021/12/29 01:47:43;;;;;;;5.80;1.45;;;;;;;4.20;87.13;98636.52;2908994;81;21043;-71
2021/12/29 01:51:51;;;;;;;2.83;1.40;;;;;;;4.14;87.05;98634.41;2896833;82;21007;-77
2021/12/29 01:55:52;;;;;;;2.75;2.05;;;;;;;4.18;86.98;98637.63;2918898;81;21014;-75
2021/12/29 01:59:54;;;;;;;2.60;1.52;;;;;;;4.19;87.11;98643.25;2964341;80;21004;-78
2021/12/29 02:03:58;;;;;;;3.90;3.25;;;;;;;4.25;87.24;98644.05;2976995;80;21040;-75
2021/12/29 02:08:00;;;;;;;2.77;2.58;;;;;;;4.26;86.76;98643.09;2977327;80;21055;-74
2021/12/29 02:12:03;;;;;;;3.10;2.00;;;;;;;4.27;86.26;98651.34;2977336;80;21031;-74
2021/12/29 02:16:06;;;;;;;2.33;1.75;;;;;;;4.27;86.06;98646.92;2977698;80;21051;-74
2021/12/29 02:20:12;;;;;;;3.15;1.82;;;;;;;4.31;86.02;98644.03;2977472;80;21079;-74
2021/12/29 02:28:25;;;;;;;3.15;2.62;;;;;;;4.29;86.07;98655.99;2976524;80;21532;-76
2021/12/29 02:32:28;;;;;;;2.42;2.22;;;;;;;4.25;86.30;98657.21;2973096;80;21102;-75
2021/12/29 02:36:33;;;;;;;2.95;1.77;;;;;;;4.19;86.30;98670.38;2975804;80;21003;-75
2021/12/29 02:40:36;;;;;;;3.27;2.55;;;;;;;4.21;86.57;98674.22;2975494;80;21065;-76
2021/12/29 02:44:41;;;;;;;4.80;3.02;;;;;;;4.14;86.61;98679.99;2975879;80;21079;-77
2021/12/29 02:48:54;;;;;;;5.08;4.17;;;;;;;4.10;86.65;98681.17;2978892;79;21111;-76
2021/12/29 02:52:51;;;;;;;3.17;2.37;;;;;;;4.12;86.80;98687.14;2981426;79;21003;-74
2021/12/29 02:56:58;;;;;;;3.25;2.47;;;;;;;4.04;87.48;98691.39;2982187;79;21643;-75
2021/12/29 03:01:00;;;;;;;2.15;1.98;;;;;;;4.06;87.20;98686.34;2979797;79;20976;-74
2021/12/29 03:05:02;;;;;;;4.42;4.08;;;;;;;4.12;87.28;98684.52;2981907;79;21603;-72
2021/12/29 03:09:07;;;;;;;6.65;4.15;;;;;;;4.16;86.99;98686.92;2982043;79;21027;-76
2021/12/29 03:13:10;;;;;;;6.20;3.22;;;;;;;4.11;86.90;98675.45;2982098;79;21568;-72
2021/12/29 03:17:12;;;;;;;4.30;3.92;;;;;;;4.15;86.41;98678.18;2981983;79;21095;-72
2021/12/29 03:21:15;;;;;;;5.58;2.30;;;;;;;4.07;86.34;98689.33;2982331;79;21067;-74
2021/12/29 03:25:17;;;;;;;4.67;3.50;;;;;;;4.13;86.29;98693.27;2982452;79;21016;-75
2021/12/29 03:29:18;;;;;;;4.10;3.15;;;;;;;4.19;86.23;98698.02;2982154;79;21004;-74
2021/12/29 03:33:23;;;;;;;5.15;3.25;;;;;;;4.18;86.12;98702.93;2982384;79;21521;-70
2021/12/29 03:37:25;;;;;;;6.10;3.27;;;;;;;4.15;86.25;98700.55;2982829;79;21083;-73
2021/12/29 03:41:27;;;;;;;7.50;3.80;;;;;;;4.14;86.50;98703.68;2982906;79;21067;-77
2021/12/29 03:45:29;;;;;;;4.72;3.37;;;;;;;4.12;86.78;98709.52;2982419;79;21043;-76
2021/12/29 03:49:31;;;;;;;5.72;3.35;;;;;;;4.14;86.89;98715.52;2982249;79;21565;-73
2021/12/29 03:53:37;;;;;;;7.00;2.83;;;;;;;4.19;86.81;98706.41;2983257;79;21003;-76
2021/12/29 03:57:39;;;;;;;6.87;3.80;;;;;;;4.19;86.86;98715.63;2947060;79;21507;-76
2021/12/29 04:01:42;;;;;;;6.97;3.58;;;;;;;4.23;86.91;98720.53;2914782;80;21091;-74
2021/12/29 04:05:43;;;;;;;4.50;3.25;;;;;;;4.25;87.05;98736.17;2893656;81;21015;-76
2021/12/29 04:09:46;;;;;;;5.28;3.42;;;;;;;4.38;87.22;98746.08;2893243;82;21038;-77
2021/12/29 04:13:50;;;;;;;7.65;3.95;;;;;;;4.40;86.92;98745.94;2893513;82;21015;-77
2021/12/29 04:17:58;;;;;;;8.20;5.65;;;;;;;4.45;86.93;98746.89;2893310;81;21078;-74
2021/12/29 04:22:03;;;;;;;6.25;4.65;;;;;;;4.47;86.83;98758.13;2893657;81;21051;-73
2021/12/29 04:26:08;;;;;;;9.05;4.22;;;;;;;4.46;86.73;98758.63;2893657;82;21050;-77
2021/12/29 04:30:13;;;;;;;14.93;7.43;;;;;;;4.48;86.79;98757.17;2897735;79;21022;-73
2021/12/29 04:34:14;;;;;;;22.55;9.48;;;;;;;4.48;86.76;98771.66;2984034;79;21062;-66
2021/12/29 04:38:16;;;;;;;13.45;8.73;;;;;;;4.41;87.13;98770.84;2984538;79;21074;-72
2021/12/29 04:42:17;;;;;;;33.38;14.75;;;;;;;4.46;87.23;98765.22;2984042;79;21817;-70
2021/12/29 04:46:28;;;;;;;28.92;12.75;;;;;;;4.54;87.14;98765.91;2983819;79;21008;-74
2021/12/29 04:50:30;;;;;;;16.67;9.45;;;;;;;4.62;86.92;98774.48;2982727;79;21035;-77
2021/12/29 04:54:34;;;;;;;19.15;7.17;;;;;;;4.68;86.91;98785.36;2983870;79;21052;-73
2021/12/29 04:58:38;;;;;;;16.87;8.10;;;;;;;4.70;86.79;98778.16;2983923;79;21082;-73
2021/12/29 05:02:39;;;;;;;11.73;5.20;;;;;;;4.69;86.74;98779.13;2957830;79;20975;-76
2021/12/29 05:11:02;;;;;;;6.55;5.47;;;;;;;4.75;86.86;98789.65;2943000;80;21078;-72
2021/12/29 05:15:05;;;;;;;6.00;3.72;;;;;;;4.80;87.06;98802.45;2941999;80;20996;-72
2021/12/29 05:19:07;;;;;;;7.45;4.55;;;;;;;4.84;87.09;98808.67;2934886;80;21025;-74
2021/12/29 05:23:10;;;;;;;5.35;3.20;;;;;;;4.80;87.04;98814.31;2938521;80;21030;-75
2021/12/29 05:27:12;;;;;;;4.85;3.58;;;;;;;4.90;87.19;98809.95;2943148;80;21047;-74
2021/12/29 05:31:14;;;;;;;4.83;3.02;;;;;;;4.96;87.10;98803.34;2944237;80;21420;-73
2021/12/29 05:35:16;;;;;;;5.87;3.95;;;;;;;5.03;87.10;98811.58;2934842;80;21426;-70
2021/12/29 05:39:19;;;;;;;4.85;3.50;;;;;;;5.03;86.90;98812.90;2924842;81;21316;-76
2021/12/29 05:43:21;;;;;;;22.73;19.52;;;;;;;5.11;86.87;98809.14;2942483;80;21054;-76
2021/12/29 05:47:22;;;;;;;10.85;8.03;;;;;;;5.18;86.86;98809.47;2916000;79;20995;-69
2021/12/29 05:51:24;;;;;;;11.00;4.90;;;;;;;5.21;86.67;98827.66;2960689;80;21065;-72
2021/12/29 05:55:28;;;;;;;5.05;4.12;;;;;;;5.23;86.51;98834.49;2973045;80;21013;-70
2021/12/29 05:59:30;;;;;;;7.05;4.05;;;;;;;5.29;86.64;98852.93;2975630;80;20978;-72
2021/12/29 06:03:31;;;;;;;5.53;4.50;;;;;;;5.33;86.19;98852.20;2973401;80;21021;-74
2021/12/29 06:07:35;;;;;;;8.85;4.67;;;;;;;5.39;86.01;98855.64;2972993;80;20950;-70
2021/12/29 06:11:37;;;;;;;9.70;4.60;;;;;;;5.41;85.97;98860.30;2973564;78;21049;-70
2021/12/29 06:15:38;;;;;;;6.00;3.95;;;;;;;5.44;86.10;98860.03;2970376;79;21020;-69
2021/12/29 06:19:42;;;;;;;7.45;5.72;;;;;;;5.45;85.79;98878.03;2982137;78;21017;-67
2021/12/29 06:23:45;;;;;;;6.72;3.75;;;;;;;5.41;85.96;98881.39;2978425;78;20989;-70
2021/12/29 06:27:47;;;;;;;5.08;4.40;;;;;;;5.42;86.05;98895.78;2972270;80;21002;-66
2021/12/29 06:31:50;;;;;;;4.87;3.83;;;;;;;5.45;85.96;98903.91;2972610;80;20997;-70
2021/12/29 06:35:52;;;;;;;7.17;5.12;;;;;;;5.43;85.91;98911.11;2974576;80;21046;-70
2021/12/29 06:39:53;;;;;;;5.65;4.42;;;;;;;5.47;85.87;98913.84;2972318;80;21041;-67
2021/12/29 06:43:55;;;;;;;6.05;5.55;;;;;;;5.43;85.57;98914.60;2974754;80;21502;-69
2021/12/29 06:47:58;;;;;;;6.30;4.42;;;;;;;5.37;85.52;98927.45;2972492;80;20994;-72
2021/12/29 06:52:02;;;;;;;8.15;4.50;;;;;;;5.40;85.56;98926.73;2972177;80;21006;-74
2021/12/29 06:56:05;;;;;;;7.35;4.87;;;;;;;5.38;85.73;98932.58;2972796;80;21002;-70
2021/12/29 07:00:13;;;;;;;5.93;4.10;;;;;;;5.39;85.64;98946.62;2975821;80;21036;-74
2021/12/29 07:04:16;;;;;;;5.37;3.95;;;;;;;5.38;85.71;98955.49;2956578;80;20993;-69
2021/12/29 07:08:19;;;;;;;4.37;3.58;;;;;;;5.40;85.76;98961.48;2973518;80;21033;-70
2021/12/29 07:12:21;;;;;;;5.65;4.03;;;;;;;5.41;85.73;98963.15;2973393;80;21052;-73
2021/12/29 07:16:24;;;;;;;4.97;3.60;;;;;;;5.44;85.83;98969.48;2943331;80;20997;-69
2021/12/29 07:20:28;;;;;;;4.30;2.85;;;;;;;5.50;86.00;98985.30;2974927;78;21021;-68
2021/12/29 07:24:31;;;;;;;4.25;3.08;;;;;;;5.51;85.66;98985.66;2973707;80;21021;-69
2021/12/29 07:28:33;;;;;;;4.30;3.85;;;;;;;5.56;85.82;99006.75;2973793;80;20970;-72
2021/12/29 07:32:34;;;;;;;4.47;2.87;;;;;;;5.65;86.00;99010.90;2972772;80;20975;-68
2021/12/29 07:36:37;;;;;;;5.00;4.37;;;;;;;5.69;85.83;99013.64;2975405;80;21037;-69
2021/12/29 07:40:39;;;;;;;6.40;5.28;;;;;;;5.78;86.12;99018.17;2975247;80;21037;-69
2021/12/29 07:44:45;;;;;;;7.40;6.70;;;;;;;5.92;86.80;99020.17;2974413;79;21064;-69
2021/12/29 07:48:46;;;;;;;8.45;7.60;;;;;;;5.96;86.11;99026.86;2972581;78;21057;-66
2021/12/29 07:52:48;;;;;;;5.90;5.30;;;;;;;5.95;86.02;99035.75;2969851;77;21021;-68
2021/12/29 07:56:50;;;;;;;6.40;4.87;;;;;;;5.99;86.34;99033.20;2971433;80;20989;-70
2021/12/29 08:00:54;;;;;;;6.58;4.15;;;;;;;6.04;86.25;99042.92;2971702;80;21013;-69
2021/12/29 08:04:58;;;;;;;5.70;4.53;;;;;;;6.05;86.24;99043.77;2969825;80;21014;-71
2021/12/29 08:09:01;;;;;;;8.80;3.92;;;;;;;6.06;85.68;99049.41;2968733;80;21100;-65
2021/12/29 08:13:04;;;;;;;5.92;4.17;;;;;;;5.99;85.53;99060.92;2968087;80;21065;-67
2021/12/29 08:17:07;;;;;;;4.62;3.92;;;;;;;5.98;85.51;99069.30;2969916;80;21571;-66
2021/12/29 08:21:09;;;;;;;3.90;3.45;;;;;;;5.94;85.34;99076.30;2971521;80;20954;-69
2021/12/29 08:25:12;;;;;;;5.55;3.62;;;;;;;5.96;85.37;99070.41;2970461;80;20978;-71
2021/12/29 08:29:14;;;;;;;7.50;3.52;;;;;;;5.97;85.24;99069.45;2970605;80;21060;-72
2021/12/29 08:33:16;;;;;;;8.30;6.85;;;;;;;5.95;85.21;99065.59;3015814;78;21055;-68
2021/12/29 08:37:17;;;;;;;12.10;9.18;;;;;;;5.98;85.59;99068.48;3025412;78;21008;-66
2021/12/29 08:41:23;;;;;;;19.48;12.98;;;;;;;5.99;85.46;99071.01;3001279;78;21025;-66
2021/12/29 08:45:29;;;;;;;163.12;74.58;;;;;;;6.03;85.81;99068.97;2969743;80;20990;-71
2021/12/29 08:49:34;;;;;;;135.90;67.40;;;;;;;5.97;85.68;99070.27;2966116;80;21054;-67
2021/12/29 08:53:39;;;;;;;40.03;22.40;;;;;;;5.97;85.11;99067.62;2964589;80;20970;-72
2021/12/29 08:57:43;;;;;;;15.48;9.63;;;;;;;5.98;84.88;99075.08;2965415;79;21022;-70
2021/12/29 09:01:44;;;;;;;12.63;8.73;;;;;;;6.01;85.09;99084.09;2964846;80;20998;-71
2021/12/29 09:05:46;;;;;;;10.28;8.60;;;;;;;6.17;85.45;99082.84;2963110;80;21046;-69
2021/12/29 09:09:48;;;;;;;15.38;8.28;;;;;;;6.25;85.53;99077.74;2963898;80;21546;-70
2021/12/29 09:13:50;;;;;;;20.50;13.20;;;;;;;6.38;85.53;99075.77;2959722;80;21364;-72
2021/12/29 09:17:52;;;;;;;15.10;10.38;;;;;;;6.53;84.94;99078.91;2935945;80;21085;-66
2021/12/29 09:21:56;;;;;;;23.57;15.03;;;;;;;6.64;84.50;99079.81;2938156;80;21025;-69
2021/12/29 09:25:57;;;;;;;13.58;8.20;;;;;;;6.68;84.48;99090.48;2954226;80;21045;-68
2021/12/29 09:30:01;;;;;;;14.65;8.35;;;;;;;6.86;84.84;99088.91;2935250;78;21022;-70
2021/12/29 09:34:03;;;;;;;13.20;7.03;;;;;;;7.09;85.49;99089.23;2956191;80;21049;-65
2021/12/29 09:38:08;;;;;;;25.20;10.50;;;;;;;7.25;85.33;99097.48;2957668;80;20983;-67
2021/12/29 09:42:10;;;;;;;19.02;11.03;;;;;;;7.38;84.70;99103.03;2955690;78;21096;-66
2021/12/29 09:46:12;;;;;;;23.62;10.18;;;;;;;7.47;84.58;99112.83;2957172;80;21003;-68
2021/12/29 09:50:17;;;;;;;11.50;7.30;;;;;;;7.48;83.51;99115.83;2958130;80;21082;-72
2021/12/29 09:54:20;;;;;;;10.82;5.97;;;;;;;7.47;83.97;99112.83;2958959;80;21037;-71
2021/12/29 09:58:21;;;;;;;8.63;6.42;;;;;;;7.47;84.06;99115.95;2959015;80;21041;-68
2021/12/29 10:02:23;;;;;;;9.90;7.70;;;;;;;7.47;84.41;99116.80;2958720;80;21512;-70
2021/12/29 10:06:24;;;;;;;12.37;8.83;;;;;;;7.52;84.64;99125.63;2958557;80;21034;-66
2021/12/29 10:10:27;;;;;;;12.00;7.28;;;;;;;7.55;84.49;99142.09;2958562;80;21089;-71
2021/12/29 10:14:33;;;;;;;11.05;7.42;;;;;;;7.60;84.67;99128.93;2958750;80;20998;-72
2021/12/29 10:18:40;;;;;;;10.13;8.67;;;;;;;7.60;84.22;99127.14;2958460;80;21017;-67
2021/12/29 10:22:41;;;;;;;11.50;8.08;;;;;;;7.65;84.32;99137.30;2958937;80;21038;-69
2021/12/29 10:26:48;;;;;;;13.38;9.23;;;;;;;7.69;84.59;99136.08;2959626;80;21029;-73
2021/12/29 10:31:07;;;;;;;10.93;7.95;;;;;;;7.76;84.10;99145.61;2960114;80;30791;-72
2021/12/29 10:35:09;;;;;;;11.35;7.70;;;;;;;7.82;84.40;99157.00;2960724;80;21006;-68
2021/12/29 10:39:30;;;;;;;14.40;10.82;;;;;;;7.84;84.08;99155.87;2960410;80;20951;-69
2021/12/29 10:43:32;;;;;;;17.65;13.25;;;;;;;7.89;83.90;99159.95;2960983;80;20938;-71
2021/12/29 10:47:38;;;;;;;15.63;10.25;;;;;;;7.96;84.23;99166.36;2960757;80;21009;-70
2021/12/29 10:51:47;;;;;;;11.83;9.33;;;;;;;7.96;84.17;99171.19;2967484;80;21124;-71
2021/12/29 10:55:45;;;;;;;10.78;9.10;;;;;;;8.01;84.45;99177.37;2968402;80;21001;-67
2021/12/29 10:59:57;;;;;;;13.20;10.05;;;;;;;8.08;84.45;99175.88;2970972;80;21045;-71
2021/12/29 11:03:57;;;;;;;16.70;8.30;;;;;;;8.10;84.77;99179.22;2968182;80;20982;-73
2021/12/29 11:08:08;;;;;;;11.15;7.25;;;;;;;8.15;84.92;99180.11;2968152;80;21025;-68
2021/12/29 11:12:15;;;;;;;10.55;7.33;;;;;;;8.19;85.00;99177.55;2968839;80;21017;-72
2021/12/29 11:16:18;;;;;;;;;;;;;;;8.21;84.76;99185.34;2971109;80;21100;-72
2021/12/29 11:20:24;;;;;;;12.63;8.45;;;;;;;8.17;84.50;99181.30;2966338;80;20152;-67
2021/12/29 11:24:25;;;;;;;;;;;;;;;8.08;84.69;99181.17;2967518;80;21010;-70
2021/12/29 11:28:30;;;;;;;10.98;7.03;;;;;;;8.10;85.04;99184.52;2919533;80;20167;-71
2021/12/29 11:32:37;;;;;;;9.83;6.87;;;;;;;8.09;85.19;99185.96;2932090;80;21574;-70
2021/12/29 11:36:38;;;;;;;;;;;;;;;8.09;85.24;99181.99;2924435;80;21041;-71
2021/12/29 11:40:47;;;;;;;9.28;6.95;;;;;;;8.06;85.18;99184.45;2921213;81;20132;-71
2021/12/29 11:44:49;;;;;;;10.55;7.15;;;;;;;8.02;85.27;99184.34;2920906;81;21010;-68
2021/12/29 11:48:54;;;;;;;11.03;7.75;;;;;;;7.99;85.15;99189.92;2931575;80;20998;-70
2021/12/29 11:53:19;;;;;;;10.40;7.10;;;;;;;7.95;85.23;99193.81;2938826;80;21085;-69
2021/12/29 11:57:25;;;;;;;12.95;7.83;;;;;;;7.95;85.16;99205.23;2939453;80;21027;-68
2021/12/29 12:01:29;;;;;;;10.70;6.80;;;;;;;7.94;85.23;99204.06;2939544;80;21008;-70
2021/12/29 12:05:37;;;;;;;11.15;7.62;;;;;;;7.93;85.21;99201.06;2929257;80;21046;-71
2021/12/29 12:09:48;;;;;;;12.20;8.58;;;;;;;7.92;85.48;99202.03;2923841;80;20951;-71
2021/12/29 12:13:50;;;;;;;15.63;8.45;;;;;;;7.98;85.63;99202.81;2921440;80;21721;-70
2021/12/29 12:17:55;;;;;;;15.40;8.30;;;;;;;8.03;85.79;99209.03;2928509;80;21031;-67
2021/12/29 12:22:19;;;;;;;12.03;8.75;;;;;;;8.12;86.02;99209.05;2893461;82;21046;-70
2021/12/29 12:26:25;;;;;;;12.85;10.00;;;;;;;8.22;85.61;99208.22;2892938;82;21094;-67
2021/12/29 12:30:28;;;;;;;16.40;9.55;;;;;;;8.31;85.38;99207.41;2912116;80;21066;-69
2021/12/29 12:34:29;;;;;;;19.23;10.13;;;;;;;8.27;85.49;99216.11;2944608;80;21015;-72
2021/12/29 12:38:35;;;;;;;14.58;9.55;;;;;;;8.34;85.83;99220.38;2944742;80;20991;-71
2021/12/29 12:42:37;;;;;;;17.57;10.10;;;;;;;8.36;85.65;99215.77;2945066;80;21528;-68
2021/12/29 12:46:48;;;;;;;13.98;8.30;;;;;;;8.38;85.52;99220.45;2944321;80;21541;-72
2021/12/29 12:50:51;;;;;;;13.53;9.23;;;;;;;8.37;85.10;99217.45;2940874;80;21032;-70
2021/12/29 12:54:59;;;;;;;12.95;9.90;;;;;;;8.31;85.31;99221.98;2927162;80;21109;-75
2021/12/29 12:59:06;;;;;;;8.68;7.78;;;;;;;8.23;85.27;99221.81;2926732;81;21023;-69
2021/12/29 13:03:08;;;;;;;19.75;10.00;;;;;;;8.19;85.74;99215.12;2916857;81;21011;-73
2021/12/29 13:07:10;;;;;;;13.98;9.65;;;;;;;8.23;86.14;99228.44;2921693;80;21001;-70
2021/12/29 13:11:19;;;;;;;14.23;11.48;;;;;;;8.25;86.26;99233.10;2932919;80;21044;-73
2021/12/29 13:15:21;;;;;;;22.48;12.25;;;;;;;8.26;86.15;99244.91;2942335;80;21072;-73
2021/12/29 13:19:25;;;;;;;18.10;12.73;;;;;;;8.24;85.98;99256.13;2939712;80;21042;-74
2021/12/29 13:23:27;;;;;;;23.27;14.78;;;;;;;8.21;85.72;99259.53;2928799;81;21031;-74
2021/12/29 13:27:29;;;;;;;23.00;14.78;;;;;;;8.17;85.58;99251.51;2914728;81;22357;-74
2021/12/29 13:31:31;;;;;;;17.00;12.37;;;;;;;8.17;85.76;99260.78;2931660;81;20988;-73
2021/12/29 13:35:36;;;;;;;24.90;13.05;;;;;;;8.11;86.39;99263.47;2927446;81;21026;-73
2021/12/29 13:39:38;;;;;;;19.40;15.37;;;;;;;8.10;86.31;99274.57;2937114;81;20995;-73
2021/12/29 13:43:43;;;;;;;24.52;16.62;;;;;;;7.99;86.24;99281.28;2927548;81;21035;-69
2021/12/29 13:47:44;;;;;;;23.18;17.05;;;;;;;7.97;86.61;99283.23;2926079;81;20946;-73
2021/12/29 13:51:47;;;;;;;20.48;12.90;;;;;;;8.02;86.36;99285.48;2927047;81;21028;-72
2021/12/29 13:55:49;;;;;;;11.95;9.73;;;;;;;8.04;85.94;99295.45;2926471;80;20999;-71
2021/12/29 13:59:50;;;;;;;15.20;10.72;;;;;;;7.98;85.83;99295.50;2928416;81;21583;-76
2021/12/29 14:03:52;;;;;;;13.08;9.13;;;;;;;7.91;85.81;99297.83;2923858;80;21002;-70
2021/12/29 14:07:57;;;;;;;16.02;9.45;;;;;;;7.78;86.05;99304.68;2938978;80;21031;-73
2021/12/29 14:12:22;;;;;;;18.42;10.03;;;;;;;7.65;86.65;99315.95;2938910;81;21512;-77
2021/12/29 14:16:24;;;;;;;12.90;8.83;;;;;;;7.53;86.67;99323.98;2935045;81;21579;-75
2021/12/29 14:20:26;;;;;;;13.18;9.48;;;;;;;7.41;86.37;99329.83;2930312;81;21061;-72
2021/12/29 14:24:28;;;;;;;11.60;9.23;;;;;;;7.40;86.74;99332.59;2923526;81;21070;-76
2021/12/29 14:28:30;;;;;;;18.20;10.03;;;;;;;7.45;86.50;99332.22;2925919;81;21010;-74
2021/12/29 14:32:31;;;;;;;21.93;9.90;;;;;;;7.57;86.19;99336.48;2931278;81;21094;-70
2021/12/29 14:36:44;;;;;;;11.25;8.80;;;;;;;7.68;85.84;99341.69;2940130;81;21524;-70
2021/12/29 14:40:46;;;;;;;10.75;7.37;;;;;;;7.79;85.80;99343.42;2940506;81;21007;-74
2021/12/29 14:44:56;;;;;;;17.10;9.50;;;;;;;7.86;85.06;99348.56;2939299;81;21035;-75
2021/12/29 14:49:02;;;;;;;11.48;8.95;;;;;;;7.89;84.98;99354.56;2940730;81;21027;-78
2021/12/29 14:53:07;;;;;;;11.90;8.83;;;;;;;7.96;84.97;99353.05;2945127;80;21063;-73
2021/12/29 14:57:17;;;;;;;15.88;10.45;;;;;;;7.84;84.58;99360.25;2944401;80;21034;-73
2021/12/29 15:01:24;;;;;;;21.40;14.70;;;;;;;7.72;84.68;99362.13;2944798;80;21023;-73
2021/12/29 15:05:27;;;;;;;20.35;17.05;;;;;;;7.70;84.56;99376.81;2944319;80;21054;-75
2021/12/29 15:09:28;;;;;;;30.02;20.75;;;;;;;7.73;84.43;99381.02;2901828;80;21427;-75
2021/12/29 15:13:36;;;;;;;25.75;20.20;;;;;;;7.78;83.75;99381.45;2914738;80;21298;-70
2021/12/29 15:17:38;;;;;;;24.57;16.00;;;;;;;7.76;83.55;99393.98;2942243;80;21567;-70
2021/12/29 15:21:39;;;;;;;29.65;16.50;;;;;;;7.69;83.34;99391.02;2940194;80;21047;-73
2021/12/29 15:25:41;;;;;;;21.02;14.98;;;;;;;7.67;83.70;99394.78;2903977;80;21301;-74
2021/12/29 15:29:43;;;;;;;28.02;16.05;;;;;;;7.66;83.68;99399.22;2886762;82;21008;-73
2021/12/29 15:33:46;;;;;;;25.43;14.98;;;;;;;7.68;83.30;99414.98;2899454;81;21555;-73
2021/12/29 15:37:48;;;;;;;21.52;13.83;;;;;;;7.66;83.90;99419.54;2918246;81;21030;-73
2021/12/29 15:41:51;;;;;;;20.50;13.98;;;;;;;7.57;84.36;99427.30;2931021;80;21019;-76
2021/12/29 15:45:52;;;;;;;16.52;11.25;;;;;;;7.52;84.81;99436.58;2943498;80;21035;-77
2021/12/29 15:49:54;;;;;;;21.17;12.50;;;;;;;7.42;84.79;99450.58;2943188;80;21042;-73
2021/12/29 15:53:55;;;;;;;27.85;15.30;;;;;;;7.32;84.94;99445.67;2936257;80;21078;-75
2021/12/29 15:57:58;;;;;;;26.87;16.55;;;;;;;7.26;85.19;99442.22;2937248;81;21050;-67
2021/12/29 16:02:01;;;;;;;32.17;17.25;;;;;;;7.21;85.35;99447.88;2937404;80;20975;-75
2021/12/29 16:06:04;;;;;;;24.87;18.05;;;;;;;7.15;85.01;99439.13;2937729;81;20984;-68
2021/12/29 16:10:08;;;;;;;26.00;17.75;;;;;;;7.17;84.93;99444.27;2937516;81;21043;-71
2021/12/29 16:14:10;;;;;;;27.35;18.17;;;;;;;7.18;84.76;99450.77;2937351;81;21338;-76
2021/12/29 16:18:12;;;;;;;33.30;21.75;;;;;;;7.14;84.10;99455.95;2937992;81;21396;-77
2021/12/29 16:22:14;;;;;;;32.48;20.02;;;;;;;7.03;84.13;99465.22;2937148;81;21027;-75
2021/12/29 16:26:15;;;;;;;29.90;18.42;;;;;;;6.90;84.34;99458.30;2922025;81;21041;-72
2021/12/29 16:30:20;;;;;;;28.32;17.85;;;;;;;6.84;84.61;99471.52;2920493;81;21481;-77
2021/12/29 16:34:23;;;;;;;31.55;19.50;;;;;;;6.83;84.84;99471.16;2928223;81;21046;-74
2021/12/29 16:38:25;;;;;;;28.62;21.02;;;;;;;6.86;85.06;99474.02;2927726;80;21109;-72
2021/12/29 16:42:27;;;;;;;32.38;19.23;;;;;;;6.93;85.08;99475.70;2938067;80;21013;-80
2021/12/29 16:46:29;;;;;;;25.85;20.12;;;;;;;6.98;84.93;99480.98;2937684;81;21032;-67
2021/12/29 16:50:32;;;;;;;24.20;18.45;;;;;;;6.97;84.79;99484.59;2937192;80;21041;-75
2021/12/29 16:54:35;;;;;;;23.98;16.37;;;;;;;6.98;85.05;99478.84;2942839;80;21032;-77
2021/12/29 16:58:37;;;;;;;31.82;19.42;;;;;;;6.90;85.19;99483.41;2942975;80;20997;-81
2021/12/29 17:02:38;;;;;;;37.88;21.30;;;;;;;6.94;85.21;99486.16;2941898;80;20945;-81
2021/12/29 17:06:40;;;;;;;31.57;22.52;;;;;;;6.97;85.37;99487.70;2941766;80;21021;-79
2021/12/29 17:10:43;;;;;;;43.58;29.40;;;;;;;6.97;85.63;99496.95;2942243;80;21020;-81
2021/12/29 17:14:45;;;;;;;53.02;37.65;;;;;;;6.92;85.95;99488.56;2942186;80;21028;-78
2021/12/29 17:18:48;;;;;;;58.92;37.67;;;;;;;6.85;86.27;99482.91;2941701;80;21099;-77
2021/12/29 17:22:49;;;;;;;54.70;32.70;;;;;;;6.84;86.34;99486.05;2941758;80;21007;-79
2021/12/29 17:26:51;;;;;;;50.75;35.35;;;;;;;6.83;86.06;99492.30;2847926;80;21030;-78
2021/12/29 17:30:53;;;;;;;59.88;39.03;;;;;;;6.79;86.20;99490.87;2845148;83;21062;-71
2021/12/29 17:34:54;;;;;;;105.10;72.78;;;;;;;6.75;86.47;99484.62;2844792;83;20971;-78
2021/12/29 17:38:56;;;;;;;97.72;63.28;;;;;;;6.81;86.29;99497.34;2844899;82;21002;-70
2021/12/29 17:42:58;;;;;;;66.65;43.92;;;;;;;6.84;86.23;99496.63;2844580;83;21101;-73
2021/12/29 17:47:00;;;;;;;47.08;35.40;;;;;;;6.91;86.10;99512.85;2844419;83;21014;-77
2021/12/29 17:51:02;;;;;;;40.60;28.10;;;;;;;6.90;86.12;99512.50;2848943;82;21101;-68
2021/12/29 17:55:07;;;;;;;55.15;30.57;;;;;;;6.95;86.03;99509.47;2890224;80;21058;-70
2021/12/29 17:59:09;;;;;;;44.10;30.20;;;;;;;7.02;85.95;99521.25;2890818;82;21014;-70
2021/12/29 18:03:11;;;;;;;42.65;27.75;;;;;;;7.04;85.58;99511.39;2890311;82;21044;-82
2021/12/29 18:07:12;;;;;;;44.27;28.75;;;;;;;7.03;85.52;99515.47;2902044;80;21595;-79
2021/12/29 18:11:14;;;;;;;49.33;28.73;;;;;;;7.05;85.85;99522.80;2942367;80;21110;-82
2021/12/29 18:15:17;;;;;;;34.90;21.87;;;;;;;7.08;86.13;99515.97;2948693;80;21011;-76
2021/12/29 18:19:20;;;;;;;33.15;19.35;;;;;;;7.12;85.90;99516.08;2926734;80;21004;-73
2021/12/29 18:23:21;;;;;;;30.32;20.90;;;;;;;7.15;86.01;99514.50;2924188;80;21027;-80
2021/12/29 18:27:24;;;;;;;26.25;17.50;;;;;;;7.21;85.90;99519.30;2939695;80;21326;-80
2021/12/29 18:31:26;;;;;;;22.75;16.57;;;;;;;7.20;85.65;99516.79;2929838;79;21383;-68
2021/12/29 18:35:27;;;;;;;26.10;17.37;;;;;;;7.13;85.39;99508.00;2949505;80;21597;-67
2021/12/29 18:39:29;;;;;;;28.95;18.70;;;;;;;7.10;85.42;99498.17;2944275;80;21049;-72
2021/12/29 18:43:31;;;;;;;29.92;20.48;;;;;;;7.08;85.43;99513.32;2943065;80;21030;-72
2021/12/29 18:47:32;;;;;;;32.60;20.62;;;;;;;7.00;85.48;99518.72;2956904;80;21007;-72
2021/12/29 18:51:34;;;;;;;25.90;18.65;;;;;;;6.95;85.82;99527.97;2954442;80;21063;-72
2021/12/29 18:55:38;;;;;;;26.57;16.20;;;;;;;6.94;85.85;99528.47;2942441;80;20980;-73
2021/12/29 18:59:39;;;;;;;21.97;14.78;;;;;;;6.94;86.29;99516.57;2938240;80;21026;-71
2021/12/29 19:03:41;;;;;;;29.92;15.50;;;;;;;6.93;87.63;99517.53;2931997;80;21009;-71
2021/12/29 19:07:45;;;;;;;22.25;15.25;;;;;;;6.94;88.71;99535.08;2938006;80;20976;-73
2021/12/29 19:11:51;;;;;;;17.02;13.95;;;;;;;7.00;89.00;99530.63;2938476;80;20984;-74
2021/12/29 19:15:52;;;;;;;24.10;16.80;;;;;;;7.03;89.29;99528.69;2936179;80;20973;-72